Baie-Saint-Paul, Canada
Current Conditions -  °F | °C
As of 9:00 PM on Friday 24 Oct 2014 (Local Time) from CYOY Reporting Station
Clear Clear  
Wind Chill: 39°   Ceiling: Unl
Heat Index: 39°   Visibility: 9mi
Dew Point: 36°   Wind: 2mph
Humidity: 87%   Direction: 240°WSW
Pressure: 29.79"   Gusts: NA
Location:  47.43°N, 70.5°W
Report Text: CYOY 250100Z AUTO 24002KT 9SM CLR 04/02 A2979 RMK SLP094
Loading
Personal Weather Stations






























Interactive Weather Map New forecast layout! Learn more

10-Day Weather Forecast

Advertisements
Track Severe Weather on mobile